createdAt,value
2022-11-16T00:01:08.713Z,32.72
2022-11-16T00:03:38.874Z,26.45
2022-11-16T00:06:10.054Z,26.25
2022-11-16T00:08:41.861Z,24.33
2022-11-16T00:11:13.964Z,23.35
2022-11-16T00:13:46.725Z,20.33
2022-11-16T00:16:18.317Z,26.17
2022-11-16T00:18:48.273Z,22.55
2022-11-16T00:21:18.077Z,24.70
2022-11-16T00:23:47.799Z,29.20
2022-11-16T00:26:17.940Z,28.05
2022-11-16T00:28:50.515Z,30.92
2022-11-16T00:31:20.271Z,30.33
2022-11-16T00:33:50.456Z,32.95
2022-11-16T00:36:20.400Z,27.98
2022-11-16T00:38:50.128Z,29.33
2022-11-16T00:41:19.857Z,30.02
2022-11-16T00:43:52.189Z,30.98
2022-11-16T00:46:21.941Z,20.35
2022-11-16T00:48:51.693Z,19.70
2022-11-16T00:51:21.459Z,19.25
2022-11-16T00:53:51.771Z,22.27
2022-11-16T00:56:21.520Z,17.48
2022-11-16T00:58:53.843Z,21.48
2022-11-16T01:01:24.582Z,20.23
2022-11-16T01:03:54.925Z,21.55
2022-11-16T01:06:25.427Z,28.42
2022-11-16T01:08:55.960Z,31.92
2022-11-16T01:11:41.966Z,27.17
2022-11-16T01:14:15.138Z,27.05
2022-11-16T01:16:46.343Z,28.05
2022-11-16T01:19:16.133Z,27.50
2022-11-16T01:21:45.839Z,25.45
2022-11-16T01:24:15.737Z,23.55
2022-11-16T01:26:46.478Z,23.92
2022-11-16T01:29:19.261Z,24.17
2022-11-16T01:31:55.510Z,23.65
2022-11-16T01:34:25.334Z,27.58
2022-11-16T01:36:58.290Z,29.02
2022-11-16T01:39:31.646Z,31.30
2022-11-16T01:42:04.310Z,33.20
2022-11-16T01:45:00.902Z,36.47
2022-11-16T01:47:31.650Z,24.42
2022-11-16T01:50:07.255Z,46.38
2022-11-16T01:52:40.305Z,53.47
2022-11-16T01:55:10.769Z,43.78
2022-11-16T01:58:00.120Z,26.75
2022-11-16T02:00:34.099Z,21.98
2022-11-16T02:03:24.163Z,28.27
2022-11-16T02:09:19.474Z,21.40
2022-11-16T02:12:08.548Z,20.27
2022-11-16T02:14:52.575Z,19.92
2022-11-16T02:17:34.678Z,16.85
2022-11-16T02:20:41.986Z,21.08
2022-11-16T02:23:25.641Z,20.13
2022-11-16T02:26:02.975Z,20.33
2022-11-16T02:28:37.619Z,25.52
2022-11-16T02:31:13.687Z,21.70
2022-11-16T02:33:44.712Z,25.92
2022-11-16T02:36:18.721Z,24.15
2022-11-16T02:38:52.045Z,28.75
2022-11-16T02:41:24.063Z,32.22
2022-11-16T02:43:56.098Z,29.42
2022-11-16T02:46:31.354Z,31.30
2022-11-16T02:49:06.213Z,34.03
2022-11-16T02:51:36.150Z,35.42
2022-11-16T02:54:12.998Z,35.80
2022-11-16T02:56:49.665Z,34.42
2022-11-16T02:59:21.700Z,35.05
2022-11-16T03:02:00.057Z,39.55
2022-11-16T03:04:32.968Z,39.58
2022-11-16T03:07:05.301Z,33.72
2022-11-16T03:09:37.681Z,31.55
2022-11-16T03:12:08.605Z,30.90
2022-11-16T03:14:42.849Z,30.95
2022-11-16T03:17:20.325Z,31.15
2022-11-16T03:19:54.140Z,30.33
2022-11-16T03:22:30.206Z,33.08
2022-11-16T03:25:00.205Z,34.13
2022-11-16T03:27:38.152Z,31.83
2022-11-16T03:30:10.993Z,33.78
2022-11-16T03:32:50.993Z,31.92
2022-11-16T03:35:25.950Z,37.17
2022-11-16T03:37:59.025Z,36.53
2022-11-16T03:40:32.027Z,33.22
2022-11-16T03:43:02.460Z,32.17
2022-11-16T03:45:33.451Z,33.85
2022-11-16T03:48:05.991Z,34.75
2022-11-16T03:50:36.907Z,28.90
2022-11-16T03:53:06.756Z,31.65
2022-11-16T03:55:38.606Z,30.90
2022-11-16T03:58:08.626Z,36.45
2022-11-16T04:00:38.721Z,38.35
2022-11-16T04:03:15.025Z,34.47
2022-11-16T04:05:57.424Z,30.45
2022-11-16T04:08:41.202Z,32.05
2022-11-16T04:11:26.797Z,42.95
2022-11-16T04:14:09.341Z,46.83
2022-11-16T04:17:00.558Z,33.75
2022-11-16T04:19:45.314Z,37.65
2022-11-16T04:22:31.473Z,38.10
2022-11-16T04:25:06.766Z,32.97
2022-11-16T04:27:48.958Z,37.45
2022-11-16T04:30:20.811Z,35.47
2022-11-16T04:33:04.052Z,40.20
2022-11-16T04:35:49.213Z,44.13
2022-11-16T04:38:18.901Z,32.78
2022-11-16T04:40:48.674Z,31.25
2022-11-16T04:43:18.369Z,30.25
2022-11-16T04:46:01.117Z,31.27
2022-11-16T04:48:38.150Z,29.45
2022-11-16T04:51:11.301Z,30.95
2022-11-16T04:53:41.838Z,24.85
2022-11-16T04:56:19.877Z,25.65
2022-11-16T04:58:49.948Z,26.35
2022-11-16T05:01:40.073Z,27.70
2022-11-16T05:04:10.707Z,25.88
2022-11-16T05:06:43.577Z,23.58
2022-11-16T05:09:14.437Z,25.60
2022-11-16T05:11:44.378Z,21.67
2022-11-16T05:14:16.000Z,21.60
2022-11-16T05:16:46.349Z,24.50
2022-11-16T05:19:37.428Z,27.30
2022-11-16T05:22:09.925Z,24.55
2022-11-16T05:24:41.365Z,35.08
2022-11-16T05:27:12.850Z,27.92
2022-11-16T05:29:43.908Z,27.25
2022-11-16T05:32:17.848Z,24.88
2022-11-16T05:34:47.779Z,21.58
2022-11-16T05:37:21.556Z,23.20
2022-11-16T05:39:51.355Z,26.73
2022-11-16T05:42:22.906Z,24.77
2022-11-16T05:44:54.823Z,24.38
2022-11-16T05:47:24.544Z,26.73
2022-11-16T05:49:55.216Z,47.30
2022-11-16T05:52:29.356Z,60.13
2022-11-16T05:55:03.557Z,46.90
2022-11-16T05:57:37.577Z,41.30
2022-11-16T06:00:10.212Z,33.03
2022-11-16T06:02:49.230Z,43.42
2022-11-16T06:05:25.561Z,30.33
2022-11-16T06:07:59.040Z,25.00
2022-11-16T06:10:29.851Z,30.42
2022-11-16T06:13:01.270Z,25.33
2022-11-16T06:15:31.830Z,26.83
2022-11-16T06:18:02.009Z,21.42
2022-11-16T06:20:32.945Z,19.08
2022-11-16T06:23:06.213Z,28.08
2022-11-16T06:25:36.721Z,28.05
2022-11-16T06:28:08.445Z,38.05
2022-11-16T06:30:39.604Z,28.75
2022-11-16T06:33:11.610Z,34.33
2022-11-16T06:35:42.040Z,31.00
2022-11-16T06:38:18.701Z,30.77
2022-11-16T06:40:54.442Z,37.50
2022-11-16T06:43:26.835Z,35.28
2022-11-16T06:46:01.069Z,40.17
2022-11-16T06:48:31.104Z,35.25
2022-11-16T06:51:02.574Z,31.23
2022-11-16T06:53:35.775Z,33.97
2022-11-16T06:56:08.560Z,29.83
2022-11-16T06:58:43.851Z,33.75
2022-11-16T07:01:15.905Z,36.97
2022-11-16T07:03:47.634Z,35.50
2022-11-16T07:06:18.238Z,38.40
2022-11-16T07:08:52.073Z,33.97
2022-11-16T07:11:28.018Z,38.00
2022-11-16T07:13:58.588Z,38.95
2022-11-16T07:16:28.676Z,54.70
2022-11-16T07:19:03.058Z,65.30
2022-11-16T07:21:35.107Z,32.95
2022-11-16T07:24:12.145Z,30.65
2022-11-16T07:26:42.430Z,29.10
2022-11-16T07:29:16.792Z,29.83
2022-11-16T07:32:06.426Z,44.75
2022-11-16T07:34:59.249Z,47.47
2022-11-16T07:37:31.219Z,42.90
2022-11-16T07:40:05.163Z,42.60
2022-11-16T07:42:35.745Z,49.17
2022-11-16T07:45:38.063Z,43.50
2022-11-16T07:48:12.581Z,53.28
2022-11-16T07:51:04.112Z,103.55
2022-11-16T07:53:36.338Z,121.70
2022-11-16T07:56:11.380Z,104.55
2022-11-16T07:58:44.380Z,41.45
2022-11-16T08:01:16.328Z,34.97
2022-11-16T08:03:49.322Z,33.97
2022-11-16T08:06:24.198Z,26.75
2022-11-16T08:08:58.790Z,29.35
2022-11-16T08:11:31.862Z,28.83
2022-11-16T08:14:01.758Z,33.70
2022-11-16T08:16:34.213Z,24.73
2022-11-16T08:19:13.171Z,32.08
2022-11-16T08:21:45.875Z,32.55
2022-11-16T08:24:18.365Z,29.08
2022-11-16T08:26:51.087Z,32.67
2022-11-16T08:29:21.088Z,33.92
2022-11-16T08:31:54.493Z,32.20
2022-11-16T08:34:26.945Z,34.50
2022-11-16T08:37:01.617Z,31.73
2022-11-16T08:39:43.115Z,30.92
2022-11-16T08:42:16.209Z,30.20
2022-11-16T08:44:51.037Z,29.90
2022-11-16T08:47:23.306Z,35.78
2022-11-16T08:49:59.944Z,34.03
2022-11-16T08:52:32.980Z,37.55
2022-11-16T08:55:05.213Z,37.03
2022-11-16T08:57:38.505Z,50.75
2022-11-16T09:00:15.248Z,47.72
2022-11-16T09:02:45.289Z,46.85
2022-11-16T09:05:15.409Z,56.03
2022-11-16T09:07:46.234Z,50.03
2022-11-16T09:10:19.072Z,66.28
2022-11-16T09:12:51.646Z,51.28
2022-11-16T09:15:22.741Z,52.88
2022-11-16T09:17:55.342Z,69.00
2022-11-16T09:20:27.096Z,61.78
2022-11-16T09:22:56.955Z,63.92
2022-11-16T09:25:26.801Z,62.17
2022-11-16T09:28:01.540Z,80.70
2022-11-16T09:30:31.573Z,81.03
2022-11-16T09:33:01.566Z,71.35
2022-11-16T09:35:31.795Z,63.05
2022-11-16T09:38:02.382Z,74.32
2022-11-16T09:40:37.032Z,97.53
2022-11-16T09:43:15.513Z,78.95
2022-11-16T09:45:50.029Z,85.95
2022-11-16T09:48:20.262Z,97.00
2022-11-16T09:50:52.972Z,99.68
2022-11-16T09:53:37.279Z,94.03
2022-11-16T09:56:10.593Z,86.15
2022-11-16T09:58:46.829Z,96.20
2022-11-16T10:01:25.048Z,95.28
2022-11-16T10:03:59.742Z,94.13
2022-11-16T10:06:35.938Z,88.57
2022-11-16T10:09:06.159Z,82.50
2022-11-16T10:11:53.562Z,79.03
2022-11-16T10:14:47.388Z,84.15
2022-11-16T10:17:26.452Z,78.68
2022-11-16T10:19:59.374Z,75.50
2022-11-16T10:22:46.941Z,85.28
2022-11-16T10:25:19.911Z,77.22
2022-11-16T10:27:57.476Z,95.53
2022-11-16T10:30:31.281Z,88.63
2022-11-16T10:33:09.624Z,73.28
2022-11-16T10:35:43.066Z,67.43
2022-11-16T10:38:16.318Z,64.28
2022-11-16T10:40:49.934Z,66.55
2022-11-16T10:43:22.732Z,65.20
2022-11-16T10:46:01.067Z,58.20
2022-11-16T10:48:37.744Z,54.17
2022-11-16T10:51:08.362Z,66.97
2022-11-16T10:53:40.539Z,54.47
2022-11-16T10:56:18.853Z,71.28
2022-11-16T10:58:58.106Z,67.55
2022-11-16T11:01:39.769Z,66.18
2022-11-16T11:04:25.283Z,58.55
2022-11-16T11:06:57.770Z,61.15
2022-11-16T11:09:30.263Z,58.97
2022-11-16T11:12:28.148Z,70.75
2022-11-16T11:15:09.726Z,51.85
2022-11-16T11:17:44.577Z,57.92
2022-11-16T11:20:24.741Z,56.58
2022-11-16T11:22:58.337Z,69.78
2022-11-16T11:25:32.455Z,44.53
2022-11-16T11:30:57.464Z,58.80
2022-11-16T11:33:33.734Z,39.10
2022-11-16T11:36:09.217Z,50.00
2022-11-16T11:38:58.905Z,51.30
2022-11-16T11:41:31.600Z,41.03
2022-11-16T11:44:06.622Z,42.10
2022-11-16T11:47:28.503Z,44.33
2022-11-16T11:49:35.050Z,33.38
2022-11-16T11:52:09.481Z,35.42
2022-11-16T11:54:46.027Z,34.53
2022-11-16T11:57:20.716Z,37.40
2022-11-16T11:59:52.632Z,35.10
2022-11-16T12:02:35.822Z,41.03
2022-11-16T12:05:35.146Z,37.55
2022-11-16T12:10:46.285Z,33.25
2022-11-16T12:13:35.343Z,30.35
2022-11-16T12:16:12.958Z,26.80
2022-11-16T12:18:54.245Z,28.23
2022-11-16T12:21:38.517Z,30.25
2022-11-16T12:24:27.708Z,26.52
2022-11-16T12:27:05.474Z,25.05
2022-11-16T12:29:41.954Z,28.27
2022-11-16T12:32:28.546Z,19.40
2022-11-16T12:35:11.601Z,22.38
2022-11-16T12:37:49.818Z,22.42
2022-11-16T12:40:34.370Z,24.10
2022-11-16T12:43:12.005Z,22.42
2022-11-16T12:45:50.934Z,22.15
2022-11-16T12:48:44.092Z,22.63
2022-11-16T12:51:21.584Z,155.60
2022-11-16T12:54:22.231Z,113.93
2022-11-16T12:56:56.885Z,55.65
2022-11-16T12:59:50.851Z,36.45
2022-11-16T13:02:32.295Z,73.85
2022-11-16T13:05:07.906Z,106.07
2022-11-16T13:07:43.073Z,27.77
2022-11-16T13:10:20.029Z,18.90
2022-11-16T13:13:03.945Z,17.23
2022-11-16T13:15:46.493Z,16.42
2022-11-16T13:18:19.063Z,17.30
2022-11-16T13:20:52.313Z,17.77
2022-11-16T13:23:28.556Z,20.27
2022-11-16T13:26:10.980Z,14.95
2022-11-16T13:28:43.621Z,23.30
2022-11-16T13:31:17.482Z,19.33
2022-11-16T13:33:51.421Z,16.58
2022-11-16T13:36:43.787Z,21.90
2022-11-16T13:39:21.476Z,20.52
2022-11-16T13:42:08.307Z,19.15
2022-11-16T13:44:38.290Z,19.95
2022-11-16T13:47:10.455Z,21.75
2022-11-16T13:49:43.338Z,18.90
2022-11-16T13:52:23.679Z,16.38
2022-11-16T13:54:57.062Z,17.77
2022-11-16T13:57:32.614Z,18.08
2022-11-16T14:00:15.007Z,16.73
2022-11-16T14:02:46.575Z,19.83
2022-11-16T14:05:18.818Z,19.98
2022-11-16T14:07:52.913Z,17.23
2022-11-16T14:10:56.194Z,19.63
2022-11-16T14:13:47.372Z,17.52
2022-11-16T14:16:50.222Z,18.20
2022-11-16T14:19:55.217Z,20.13
2022-11-16T14:22:49.197Z,17.38
2022-11-16T14:25:33.776Z,15.73
2022-11-16T14:28:27.286Z,14.80
2022-11-16T14:31:09.006Z,16.77
2022-11-16T14:33:39.953Z,15.55
2022-11-16T14:36:11.501Z,16.02
2022-11-16T14:38:43.886Z,19.38
2022-11-16T14:41:22.145Z,17.10
2022-11-16T14:43:55.404Z,16.92
2022-11-16T14:46:29.932Z,16.80
2022-11-16T14:49:02.249Z,14.38
2022-11-16T14:51:36.244Z,15.32
2022-11-16T14:54:16.759Z,16.60
2022-11-16T14:56:59.962Z,17.00
2022-11-16T14:59:31.350Z,14.55
2022-11-16T15:02:07.989Z,14.05
2022-11-16T15:04:38.165Z,16.85
2022-11-16T15:07:09.465Z,17.23
2022-11-16T15:09:42.238Z,15.80
2022-11-16T15:12:29.511Z,20.13
2022-11-16T15:15:01.094Z,38.88
2022-11-16T15:17:33.667Z,40.55
2022-11-16T15:20:05.317Z,23.73
2022-11-16T15:22:42.910Z,29.70
2022-11-16T15:25:27.337Z,40.53
2022-11-16T15:27:59.023Z,45.80
2022-11-16T15:30:31.146Z,38.80
2022-11-16T15:33:06.336Z,28.58
2022-11-16T15:35:38.592Z,28.30
2022-11-16T15:38:10.322Z,33.63
2022-11-16T15:40:40.447Z,26.70
2022-11-16T15:43:11.829Z,21.83
2022-11-16T15:45:42.779Z,28.65
2022-11-16T15:48:19.964Z,17.10
2022-11-16T15:51:09.565Z,16.17
2022-11-16T15:53:42.091Z,22.83
2022-11-16T15:56:16.961Z,10.93
2022-11-16T15:58:47.978Z,14.80
2022-11-16T16:01:18.982Z,16.20
2022-11-16T16:03:57.856Z,11.80
2022-11-16T16:06:46.895Z,26.25
2022-11-16T16:09:24.697Z,24.60
2022-11-16T16:11:55.544Z,19.02
2022-11-16T16:14:29.425Z,19.90
2022-11-16T16:17:01.438Z,21.60
2022-11-16T16:19:43.874Z,28.13
2022-11-16T16:22:17.805Z,27.40
2022-11-16T16:24:49.141Z,31.80
2022-11-16T16:27:20.927Z,21.42
2022-11-16T16:29:52.262Z,23.23
2022-11-16T16:32:27.754Z,25.92
2022-11-16T16:35:01.530Z,47.30
2022-11-16T16:37:32.487Z,31.17
2022-11-16T16:40:02.973Z,111.40
2022-11-16T16:42:33.713Z,103.63
2022-11-16T16:45:04.072Z,97.97
2022-11-16T16:47:34.105Z,71.47
2022-11-16T16:50:08.059Z,249.15
2022-11-16T16:52:37.902Z,90.85
2022-11-16T16:55:09.079Z,47.10
2022-11-16T16:57:40.118Z,90.20
2022-11-16T17:00:12.505Z,70.30
2022-11-16T17:02:43.066Z,55.85
2022-11-16T17:05:16.536Z,34.50
2022-11-16T17:07:46.967Z,43.85
2022-11-16T17:10:17.669Z,21.60
2022-11-16T17:12:47.529Z,41.15
2022-11-16T17:15:19.467Z,30.30
2022-11-16T17:17:49.640Z,25.88
2022-11-16T17:20:23.159Z,51.60
2022-11-16T17:22:53.018Z,38.78
2022-11-16T17:25:22.897Z,60.97
2022-11-16T17:27:52.766Z,80.90
2022-11-16T17:30:22.781Z,44.03
2022-11-16T17:32:53.243Z,34.30
2022-11-16T17:35:26.096Z,46.50
2022-11-16T17:37:56.457Z,48.90
2022-11-16T17:40:26.880Z,35.90
2022-11-16T17:42:56.740Z,62.95
2022-11-16T17:45:27.594Z,52.10
2022-11-16T17:47:57.629Z,40.08
2022-11-16T17:50:30.441Z,26.95
2022-11-16T17:53:01.033Z,44.13
2022-11-16T17:55:32.701Z,33.83
2022-11-16T17:58:02.607Z,42.78
2022-11-16T18:00:32.478Z,71.68
2022-11-16T18:03:02.367Z,27.48
2022-11-16T18:05:35.335Z,29.73
2022-11-16T18:08:05.248Z,46.38
2022-11-16T18:10:36.611Z,34.25
2022-11-16T18:13:06.619Z,47.03
2022-11-16T18:15:42.097Z,40.92
2022-11-16T18:18:12.561Z,55.78
2022-11-16T18:20:50.820Z,45.90
2022-11-16T18:23:20.772Z,61.95
2022-11-16T18:25:50.650Z,51.58
2022-11-16T18:28:20.610Z,100.53
2022-11-16T18:30:50.494Z,111.88
2022-11-16T18:33:20.439Z,110.80
2022-11-16T18:35:52.898Z,99.88
2022-11-16T18:38:22.777Z,73.47
2022-11-16T18:41:05.871Z,40.20
2022-11-16T18:43:37.053Z,40.83
2022-11-16T18:46:07.551Z,32.40
2022-11-16T18:48:37.577Z,27.40
2022-11-16T18:51:10.153Z,39.80
2022-11-16T18:53:40.144Z,35.53
2022-11-16T18:56:11.964Z,30.52
2022-11-16T18:58:50.730Z,56.90
2022-11-16T19:01:22.782Z,34.60
2022-11-16T19:03:53.059Z,22.85
2022-11-16T19:06:26.310Z,24.77
2022-11-16T19:08:59.839Z,31.65
2022-11-16T19:11:30.545Z,30.65
2022-11-16T19:14:04.368Z,29.20
2022-11-16T19:16:34.749Z,60.22
2022-11-16T19:19:05.101Z,26.30
2022-11-16T19:21:37.535Z,62.28
2022-11-16T19:24:10.273Z,85.93
2022-11-16T19:26:40.918Z,37.72
2022-11-16T19:29:11.060Z,49.03
2022-11-16T19:31:41.146Z,50.35
2022-11-16T19:34:14.172Z,36.70
2022-11-16T19:36:46.859Z,34.25
2022-11-16T19:39:16.901Z,36.28
2022-11-16T19:41:46.762Z,36.58
2022-11-16T19:44:16.654Z,42.17
2022-11-16T19:46:46.541Z,53.45
2022-11-16T19:49:20.084Z,65.10
2022-11-16T19:51:52.889Z,50.45
2022-11-16T19:54:22.942Z,50.35
2022-11-16T19:56:55.232Z,47.97
2022-11-16T19:59:25.275Z,45.35
2022-11-16T20:01:55.111Z,34.35
2022-11-16T20:04:25.588Z,46.85
2022-11-16T20:06:59.124Z,27.65
2022-11-16T20:09:30.112Z,28.40
2022-11-16T20:12:00.453Z,14.90
2022-11-16T20:14:30.368Z,17.90
2022-11-16T20:17:01.126Z,35.47
2022-11-16T20:19:31.623Z,26.02
2022-11-16T20:22:04.349Z,25.23
2022-11-16T20:24:34.756Z,31.58
2022-11-16T20:27:05.541Z,38.38
2022-11-16T20:29:35.509Z,61.42
2022-11-16T20:32:05.350Z,177.18
2022-11-16T20:34:35.469Z,45.67
2022-11-16T20:37:08.732Z,79.20
2022-11-16T20:39:38.782Z,25.65
2022-11-16T20:42:08.763Z,33.00
2022-11-16T20:44:39.321Z,18.23
2022-11-16T20:47:09.539Z,21.52
2022-11-16T20:49:39.384Z,30.55
2022-11-16T20:52:12.146Z,16.08
2022-11-16T20:54:42.516Z,21.27
2022-11-16T20:57:13.175Z,16.23
2022-11-16T20:59:43.017Z,44.50
2022-11-16T21:02:13.164Z,29.88
2022-11-16T21:04:43.008Z,28.33
2022-11-16T21:07:15.491Z,46.78
2022-11-16T21:09:58.540Z,34.40
2022-11-16T21:12:42.913Z,32.22
2022-11-16T21:15:13.441Z,34.92
2022-11-16T21:17:43.299Z,28.00
2022-11-16T21:20:27.506Z,28.45
2022-11-16T21:23:00.888Z,34.17
2022-11-16T21:25:30.847Z,26.85
2022-11-16T21:28:02.188Z,19.30
2022-11-16T21:30:32.035Z,25.75
2022-11-16T21:33:01.861Z,43.78
2022-11-16T21:35:31.828Z,24.20
2022-11-16T21:38:05.158Z,38.88
2022-11-16T21:40:35.847Z,23.88
2022-11-16T21:43:05.760Z,20.85
2022-11-16T21:45:35.733Z,34.00
2022-11-16T21:48:05.584Z,36.38
2022-11-16T21:50:36.378Z,28.85
2022-11-16T21:53:09.477Z,44.55
2022-11-16T21:55:39.536Z,36.08
2022-11-16T21:58:09.372Z,21.20
2022-11-16T22:00:39.242Z,23.55
2022-11-16T22:03:09.113Z,12.18
2022-11-16T22:05:51.404Z,79.07
2022-11-16T22:08:24.288Z,55.28
2022-11-16T22:10:54.673Z,50.08
2022-11-16T22:13:24.794Z,23.33
2022-11-16T22:15:55.089Z,21.23
2022-11-16T22:18:24.997Z,12.43
2022-11-16T22:20:54.871Z,16.98
2022-11-16T22:23:27.351Z,14.98
2022-11-16T22:25:58.014Z,13.60
2022-11-16T22:28:28.032Z,15.13
2022-11-16T22:31:03.857Z,17.67
2022-11-16T22:33:34.460Z,25.63
2022-11-16T22:36:04.681Z,18.52
2022-11-16T22:38:37.225Z,37.67
2022-11-16T22:41:08.733Z,11.20
2022-11-16T22:43:39.150Z,11.55
2022-11-16T22:46:09.924Z,11.48
2022-11-16T22:48:41.275Z,5.22
2022-11-16T22:51:17.473Z,8.68
2022-11-16T22:53:50.259Z,11.65
2022-11-16T22:56:20.108Z,8.10
2022-11-16T22:58:49.965Z,9.15
2022-11-16T23:01:20.021Z,10.52
2022-11-16T23:03:51.129Z,8.32
2022-11-16T23:06:21.209Z,8.07
2022-11-16T23:08:53.969Z,10.25
2022-11-16T23:11:37.650Z,7.20
2022-11-16T23:14:21.267Z,8.20
2022-11-16T23:16:51.480Z,9.38
2022-11-16T23:19:34.670Z,6.93
2022-11-16T23:22:17.030Z,12.48
2022-11-16T23:25:02.065Z,7.97
2022-11-16T23:27:39.804Z,9.52
2022-11-16T23:30:13.186Z,8.45
2022-11-16T23:32:43.429Z,10.95
2022-11-16T23:35:13.809Z,12.82
2022-11-16T23:37:54.358Z,13.18
2022-11-16T23:40:28.270Z,7.25
2022-11-16T23:43:11.088Z,14.20
2022-11-16T23:45:44.561Z,9.60
2022-11-16T23:48:16.323Z,7.85
2022-11-16T23:50:47.684Z,9.10
2022-11-16T23:53:17.535Z,6.25
2022-11-16T23:55:50.466Z,7.65
2022-11-16T23:58:20.433Z,7.70
